createdAt,value
2022-10-03T00:02:34.929Z,2.95
2022-10-03T00:07:54.702Z,3.75
2022-10-03T00:13:08.148Z,2.85
2022-10-03T00:18:26.705Z,3.42
2022-10-03T00:23:42.965Z,3.20
2022-10-03T00:28:56.818Z,2.92
2022-10-03T00:34:16.088Z,3.80
2022-10-03T00:39:37.755Z,3.55
2022-10-03T00:45:16.871Z,3.40
2022-10-03T00:50:53.932Z,3.17
2022-10-03T00:56:15.681Z,3.33
2022-10-03T01:01:26.934Z,3.33
2022-10-03T01:06:38.695Z,3.17
2022-10-03T01:12:02.797Z,4.00
2022-10-03T01:17:15.603Z,3.90
2022-10-03T01:22:39.181Z,3.17
2022-10-03T01:28:09.059Z,3.33
2022-10-03T01:33:21.758Z,3.85
2022-10-03T01:38:33.621Z,4.10
2022-10-03T01:43:45.315Z,3.78
2022-10-03T01:48:59.793Z,3.95
2022-10-03T01:54:17.210Z,4.47
2022-10-03T01:59:30.813Z,3.03
2022-10-03T02:04:46.824Z,2.50
2022-10-03T02:10:03.792Z,3.45
2022-10-03T02:15:17.358Z,2.63
2022-10-03T02:20:31.012Z,3.17
2022-10-03T02:25:55.205Z,3.33
2022-10-03T02:31:37.127Z,3.33
2022-10-03T02:37:17.279Z,3.13
2022-10-03T02:43:08.013Z,3.30
2022-10-03T02:48:44.097Z,2.60
2022-10-03T02:54:35.772Z,2.80
2022-10-03T03:00:06.627Z,3.30
2022-10-03T03:05:51.657Z,2.95
2022-10-03T03:11:18.698Z,3.10
2022-10-03T03:16:48.715Z,3.53
2022-10-03T03:21:59.238Z,2.90
2022-10-03T03:27:26.703Z,2.80
2022-10-03T03:32:40.238Z,3.08
2022-10-03T03:37:58.437Z,3.33
2022-10-03T03:43:28.865Z,2.45
2022-10-03T03:48:51.785Z,3.25
2022-10-03T03:54:13.294Z,2.72
2022-10-03T03:59:34.562Z,3.97
2022-10-03T04:04:56.921Z,3.10
2022-10-03T04:10:15.132Z,2.97
2022-10-03T04:15:36.553Z,2.78
2022-10-03T04:21:18.887Z,3.17
2022-10-03T04:26:33.457Z,3.10
2022-10-03T04:31:50.776Z,2.67
2022-10-03T04:37:09.226Z,3.05
2022-10-03T04:42:24.178Z,2.42
2022-10-03T04:47:33.269Z,2.63
2022-10-03T04:52:43.085Z,3.38
2022-10-03T04:57:53.770Z,2.08
2022-10-03T05:03:08.051Z,2.72
2022-10-03T05:08:24.179Z,3.67
2022-10-03T05:13:40.643Z,3.10
2022-10-03T05:18:51.198Z,2.90
2022-10-03T05:24:03.300Z,3.20
2022-10-03T05:29:16.886Z,3.17
2022-10-03T05:34:41.544Z,3.33
2022-10-03T05:39:54.389Z,3.80
2022-10-03T05:45:05.606Z,3.72
2022-10-03T05:50:35.243Z,3.00
2022-10-03T05:55:52.838Z,3.35
2022-10-03T06:01:24.249Z,3.20
2022-10-03T06:06:44.050Z,3.15
2022-10-03T06:11:59.362Z,4.10
2022-10-03T06:17:27.646Z,3.33
2022-10-03T06:22:51.253Z,3.05
2022-10-03T06:28:23.058Z,3.50
2022-10-03T06:34:01.552Z,2.65
2022-10-03T06:39:44.586Z,2.80
2022-10-03T06:45:21.631Z,3.42
2022-10-03T06:50:53.968Z,2.58
2022-10-03T06:56:22.979Z,2.47
2022-10-03T07:02:03.131Z,3.00
2022-10-03T07:07:43.523Z,2.78
2022-10-03T07:13:13.175Z,3.38
2022-10-03T07:18:54.480Z,3.10
2022-10-03T07:24:12.188Z,2.63
2022-10-03T07:30:00.369Z,2.80
2022-10-03T07:35:51.312Z,2.55
2022-10-03T07:41:17.227Z,2.22
2022-10-03T07:46:46.715Z,1.90
2022-10-03T07:52:15.726Z,1.88
2022-10-03T07:57:42.266Z,1.75
2022-10-03T08:03:24.656Z,2.35
2022-10-03T08:08:57.000Z,1.98
2022-10-03T08:14:18.153Z,2.35
2022-10-03T08:19:33.755Z,2.00
2022-10-03T08:25:00.584Z,2.20
2022-10-03T08:30:25.460Z,2.63
2022-10-03T08:36:12.411Z,2.00
2022-10-03T08:41:54.180Z,3.33
2022-10-03T08:47:14.590Z,2.13
2022-10-03T08:52:34.344Z,1.70
2022-10-03T08:58:08.664Z,4.60
2022-10-03T09:03:54.707Z,2.15
2022-10-03T09:09:27.689Z,1.83
2022-10-03T09:15:04.208Z,1.98
2022-10-03T09:25:30.115Z,1.95
2022-10-03T09:30:50.752Z,2.17
2022-10-03T09:36:24.989Z,2.30
2022-10-03T09:42:07.615Z,2.00
2022-10-03T09:47:42.706Z,1.58
2022-10-03T09:53:13.104Z,1.80
2022-10-03T09:58:56.023Z,1.90
2022-10-03T10:04:54.938Z,1.90
2022-10-03T10:10:25.408Z,1.75
2022-10-03T10:16:10.806Z,1.95
2022-10-03T10:21:48.826Z,1.95
2022-10-03T10:27:21.762Z,2.15
2022-10-03T10:33:05.831Z,2.88
2022-10-03T10:38:28.163Z,1.70
2022-10-03T10:44:03.942Z,1.52
2022-10-03T10:49:50.459Z,1.48
2022-10-03T10:55:29.977Z,1.80
2022-10-03T11:00:55.450Z,2.20
2022-10-03T11:06:53.566Z,2.10
2022-10-03T11:13:00.995Z,2.22
2022-10-03T11:18:40.535Z,2.70
2022-10-03T11:24:20.619Z,1.40
2022-10-03T11:30:17.431Z,2.28
2022-10-03T11:35:55.200Z,1.83
2022-10-03T11:41:14.308Z,1.90
2022-10-03T11:46:26.301Z,1.73
2022-10-03T11:51:42.524Z,2.03
2022-10-03T11:56:51.675Z,2.35
2022-10-03T12:02:13.728Z,1.90
2022-10-03T12:07:51.580Z,1.88
2022-10-03T12:13:00.503Z,1.30
2022-10-03T12:18:11.005Z,1.60
2022-10-03T12:23:31.380Z,1.50
2022-10-03T12:28:41.018Z,2.10
2022-10-03T12:33:52.538Z,1.83
2022-10-03T12:39:14.776Z,1.70
2022-10-03T12:44:35.028Z,1.88
2022-10-03T12:49:51.131Z,1.60
2022-10-03T12:55:13.784Z,1.85
2022-10-03T13:00:26.994Z,2.00
2022-10-03T13:05:55.423Z,2.20
2022-10-03T13:11:10.013Z,2.00
2022-10-03T13:16:25.445Z,1.92
2022-10-03T13:22:03.496Z,2.17
2022-10-03T13:27:25.863Z,2.42
2022-10-03T13:32:35.071Z,2.40
2022-10-03T13:38:00.039Z,2.35
2022-10-03T13:43:13.760Z,2.20
2022-10-03T13:48:23.107Z,2.88
2022-10-03T13:59:19.911Z,2.83
2022-10-03T14:04:44.711Z,2.35
2022-10-03T14:10:14.072Z,2.45
2022-10-03T14:15:36.368Z,3.72
2022-10-03T14:21:23.675Z,2.35
2022-10-03T14:26:34.784Z,3.20
2022-10-03T14:31:49.263Z,2.47
2022-10-03T14:37:05.631Z,2.88
2022-10-03T14:42:34.022Z,2.92
2022-10-03T14:47:42.897Z,3.10
2022-10-03T14:53:02.497Z,2.80
2022-10-03T14:58:16.882Z,3.10
2022-10-03T15:03:33.647Z,2.97
2022-10-03T15:08:43.065Z,2.70
2022-10-03T15:13:51.822Z,2.90
2022-10-03T15:19:01.828Z,3.20
2022-10-03T15:24:14.862Z,3.38
2022-10-03T15:29:21.424Z,4.10
2022-10-03T15:34:29.272Z,3.42
2022-10-03T15:39:37.403Z,4.00
2022-10-03T15:44:53.826Z,3.25
2022-10-03T15:50:02.813Z,3.28
2022-10-03T15:55:15.976Z,3.30
2022-10-03T16:00:24.760Z,3.60
2022-10-03T16:05:30.906Z,2.75
2022-10-03T16:10:39.759Z,2.33
2022-10-03T16:16:04.430Z,2.00
2022-10-03T16:21:12.379Z,2.72
2022-10-03T16:26:24.315Z,3.05
2022-10-03T16:31:31.377Z,2.83
2022-10-03T16:36:44.278Z,2.88
2022-10-03T16:41:54.361Z,3.03
2022-10-03T16:47:04.372Z,2.72
2022-10-03T16:52:14.237Z,2.33
2022-10-03T16:57:22.691Z,2.78
2022-10-03T17:02:31.328Z,2.55
2022-10-03T17:07:41.319Z,2.33
2022-10-03T17:12:48.107Z,3.08
2022-10-03T17:18:12.615Z,2.58
2022-10-03T17:23:29.528Z,3.78
2022-10-03T17:28:41.554Z,3.03
2022-10-03T17:33:51.221Z,4.05
2022-10-03T17:39:03.011Z,4.38
2022-10-03T17:44:20.269Z,6.25
2022-10-03T17:49:32.828Z,6.03
2022-10-03T17:54:39.333Z,5.07
2022-10-03T17:59:51.813Z,4.55
2022-10-03T18:05:07.666Z,5.32
2022-10-03T18:10:22.611Z,3.95
2022-10-03T18:15:51.088Z,3.92
2022-10-03T18:21:01.225Z,3.80
2022-10-03T18:26:20.601Z,3.80
2022-10-03T18:31:34.243Z,3.92
2022-10-03T18:36:44.228Z,3.53
2022-10-03T18:41:50.957Z,3.47
2022-10-03T18:47:17.520Z,3.55
2022-10-03T18:52:29.310Z,3.20
2022-10-03T18:57:39.486Z,3.60
2022-10-03T19:02:51.696Z,3.47
2022-10-03T19:08:10.349Z,3.22
2022-10-03T19:13:23.171Z,3.65
2022-10-03T19:18:34.208Z,4.10
2022-10-03T19:23:47.430Z,4.30
2022-10-03T19:28:55.363Z,4.40
2022-10-03T19:34:07.365Z,3.95
2022-10-03T19:39:17.422Z,4.18
2022-10-03T19:44:24.570Z,5.07
2022-10-03T19:49:47.059Z,4.97
2022-10-03T19:55:00.353Z,4.38
2022-10-03T20:00:08.798Z,4.15
2022-10-03T20:05:23.448Z,4.38
2022-10-03T20:10:47.304Z,4.20
2022-10-03T20:15:52.757Z,4.03
2022-10-03T20:20:59.729Z,4.13
2022-10-03T20:26:10.392Z,3.50
2022-10-03T20:31:22.840Z,3.78
2022-10-03T20:36:31.363Z,3.97
2022-10-03T20:41:47.713Z,3.67
2022-10-03T20:46:58.429Z,4.63
2022-10-03T20:52:06.711Z,4.63
2022-10-03T20:57:18.229Z,5.03
2022-10-03T21:02:31.299Z,4.88
2022-10-03T21:07:43.911Z,4.40
2022-10-03T21:12:50.591Z,5.38
2022-10-03T21:17:57.433Z,4.60
2022-10-03T21:23:08.250Z,4.60
2022-10-03T21:28:24.742Z,4.13
2022-10-03T21:33:32.326Z,4.72
2022-10-03T21:38:42.041Z,4.95
2022-10-03T21:43:54.237Z,4.80
2022-10-03T21:49:21.232Z,4.38
2022-10-03T21:54:37.456Z,4.45
2022-10-03T22:00:01.548Z,4.63
2022-10-03T22:05:18.946Z,4.20
2022-10-03T22:10:29.777Z,5.63
2022-10-03T22:15:43.977Z,4.78
2022-10-03T22:20:55.464Z,4.00
2022-10-03T22:26:10.903Z,4.70
2022-10-03T22:31:22.335Z,3.93
2022-10-03T22:36:27.319Z,3.78
2022-10-03T22:41:33.159Z,4.23
2022-10-03T22:46:38.892Z,3.90
2022-10-03T22:56:53.839Z,4.00
2022-10-03T23:02:00.662Z,4.22
2022-10-03T23:07:40.549Z,4.25
2022-10-03T23:12:51.756Z,4.03
2022-10-03T23:18:14.957Z,4.07
2022-10-03T23:23:24.099Z,3.97
2022-10-03T23:28:38.274Z,3.65
2022-10-03T23:33:53.280Z,3.00
2022-10-03T23:39:03.284Z,3.10
2022-10-03T23:44:33.396Z,3.50
2022-10-03T23:49:39.676Z,3.70
2022-10-03T23:54:44.738Z,3.58
2022-10-03T23:59:51.139Z,3.40
